createdAt,value
2023-04-13T00:04:55.061Z,35.35
2023-04-13T00:14:57.039Z,31.35
2023-04-13T00:25:00.030Z,34.22
2023-04-13T00:35:02.204Z,31.30
2023-04-13T00:45:04.401Z,34.03
2023-04-13T00:55:07.542Z,29.95
2023-04-13T01:05:12.783Z,30.73
2023-04-13T01:15:18.025Z,29.70
2023-04-13T01:25:51.829Z,32.50
2023-04-13T01:35:54.764Z,31.77
2023-04-13T01:46:14.287Z,36.97
2023-04-13T01:56:23.343Z,35.55
2023-04-13T02:06:26.208Z,47.13
2023-04-13T02:16:28.604Z,46.05
2023-04-13T02:26:30.500Z,47.47
2023-04-13T02:36:33.117Z,47.22
2023-04-13T02:46:35.113Z,41.05
2023-04-13T02:57:05.932Z,36.45
2023-04-13T03:07:10.615Z,36.97
2023-04-13T03:17:12.811Z,35.63
2023-04-13T03:27:14.855Z,32.38
2023-04-13T03:37:16.749Z,34.78
2023-04-13T03:47:18.786Z,35.65
2023-04-13T03:57:22.828Z,34.88
2023-04-13T04:07:24.936Z,32.28
2023-04-13T04:17:26.974Z,30.67
2023-04-13T04:27:29.522Z,31.40
2023-04-13T04:37:37.687Z,35.08
2023-04-13T04:47:43.874Z,30.80
2023-04-13T04:57:47.242Z,36.47
2023-04-13T05:07:49.131Z,35.75
2023-04-13T05:17:56.789Z,42.97
2023-04-13T05:27:59.847Z,36.97
2023-04-13T05:38:04.757Z,38.25
2023-04-13T05:48:07.820Z,33.83
2023-04-13T05:58:35.117Z,32.30
2023-04-13T06:08:37.147Z,30.83
2023-04-13T06:18:57.424Z,30.17
2023-04-13T06:29:00.296Z,28.58
2023-04-13T06:39:16.534Z,21.30
2023-04-13T06:49:25.406Z,19.92
2023-04-13T06:59:41.487Z,23.92
2023-04-13T07:09:43.463Z,22.42
2023-04-13T07:19:48.060Z,17.17
2023-04-13T07:29:53.678Z,15.05
2023-04-13T07:39:57.713Z,12.93
2023-04-13T07:49:59.930Z,13.05
2023-04-13T08:00:02.246Z,13.73
2023-04-13T08:10:04.756Z,12.35
2023-04-13T08:20:08.481Z,10.63
2023-04-13T08:30:11.902Z,9.27
2023-04-13T08:40:13.945Z,8.52
2023-04-13T08:50:19.343Z,11.50
2023-04-13T09:00:22.218Z,9.70
2023-04-13T09:10:26.883Z,8.75
2023-04-13T09:20:30.178Z,9.60
2023-04-13T09:30:32.158Z,10.15
2023-04-13T09:40:38.489Z,8.40
2023-04-13T09:50:59.611Z,7.95
2023-04-13T10:01:01.715Z,7.93
2023-04-13T10:11:04.641Z,8.48
2023-04-13T10:21:07.494Z,5.80
2023-04-13T10:31:10.817Z,5.80
2023-04-13T10:41:33.060Z,5.53
2023-04-13T10:51:44.443Z,7.03
2023-04-13T11:01:50.300Z,4.68
2023-04-13T11:11:52.570Z,4.97
2023-04-13T11:21:58.280Z,4.85
2023-04-13T11:32:00.327Z,4.88
2023-04-13T11:42:07.243Z,5.78
2023-04-13T12:02:21.932Z,5.43
2023-04-13T12:23:05.760Z,4.93
2023-04-13T12:33:17.152Z,4.78
2023-04-13T12:43:40.976Z,4.07
2023-04-13T12:53:42.988Z,3.45
2023-04-13T13:03:46.262Z,5.05
2023-04-13T13:13:53.553Z,3.65
2023-04-13T13:23:56.534Z,4.53
2023-04-13T13:34:00.525Z,3.78
2023-04-13T13:44:02.482Z,3.55
2023-04-13T13:54:04.557Z,3.92
2023-04-13T14:04:07.607Z,3.05
2023-04-13T14:14:20.977Z,8.02
2023-04-13T14:24:26.704Z,4.45
2023-04-13T14:34:29.148Z,2.97
2023-04-13T14:44:37.373Z,2.33
2023-04-13T14:54:40.649Z,5.10
2023-04-13T15:04:45.742Z,15.50
2023-04-13T15:14:47.988Z,3.78
2023-04-13T15:25:04.494Z,3.55
2023-04-13T15:36:03.976Z,4.43
2023-04-13T15:46:23.409Z,4.80
2023-04-13T15:56:36.879Z,3.70
2023-04-13T16:06:55.814Z,3.55
2023-04-13T16:17:08.147Z,4.57
2023-04-13T16:27:10.673Z,3.38
2023-04-13T16:37:12.774Z,14.48
2023-04-13T16:47:14.894Z,7.25
2023-04-13T16:57:17.923Z,5.57
2023-04-13T17:07:23.967Z,5.63
2023-04-13T17:17:26.442Z,9.20
2023-04-13T17:27:28.782Z,30.30
2023-04-13T17:37:30.672Z,13.23
2023-04-13T17:47:39.227Z,24.67
2023-04-13T17:57:46.017Z,22.00
2023-04-13T18:07:50.740Z,37.63
2023-04-13T18:17:53.198Z,35.30
2023-04-13T18:27:57.383Z,36.22
2023-04-13T18:38:01.315Z,24.92
2023-04-13T18:48:13.050Z,31.40
2023-04-13T18:58:15.763Z,29.55
2023-04-13T19:08:18.574Z,27.25
2023-04-13T19:18:23.336Z,29.48
2023-04-13T19:28:29.986Z,25.40
2023-04-13T19:38:33.241Z,26.38
2023-04-13T19:48:35.956Z,30.25
2023-04-13T19:58:39.485Z,24.77
2023-04-13T20:08:45.833Z,20.30
2023-04-13T20:18:51.781Z,17.55
2023-04-13T20:29:00.836Z,19.20
2023-04-13T20:39:24.676Z,19.50
2023-04-13T20:49:28.553Z,19.30
2023-04-13T20:59:34.408Z,17.60
2023-04-13T21:09:36.569Z,17.02
2023-04-13T21:19:38.555Z,16.60
2023-04-13T21:29:40.575Z,17.60
2023-04-13T21:39:43.455Z,17.17
2023-04-13T21:49:45.375Z,12.73
2023-04-13T21:59:47.382Z,15.57
2023-04-13T22:09:58.230Z,13.95
2023-04-13T22:20:00.235Z,13.02
2023-04-13T22:30:02.265Z,11.93
2023-04-13T22:40:07.867Z,11.88
2023-04-13T22:50:09.952Z,11.60
2023-04-13T23:00:12.613Z,11.18
2023-04-13T23:10:17.162Z,10.07
2023-04-13T23:20:21.686Z,10.40
2023-04-13T23:30:23.843Z,8.68
2023-04-13T23:40:25.768Z,9.48
2023-04-13T23:50:27.736Z,9.38
